Time;durP1;ratioP1;P1;durP2;ratioP2;P2;SDS_P1;SDS_P2;PMS_P1;PMS_P2;Temp;Humidity;BMP_temperature;BMP_pressure;BME280_temperature;BME280_humidity;BME280_pressure;Samples;Min_cycle;Max_cycle;Signal;HPM_P1;HPM_P2
2021/05/29 00:00:04;;;;;;;;;;;22.00;50.40;;;;;;5013873;28;75584;-71
2021/05/29 00:02:30;;;;;;;;;;;22.00;50.50;;;;;;5014091;28;78421;-71
2021/05/29 00:04:55;;;;;;;;;;;22.00;50.60;;;;;;5014032;28;77060;-70
2021/05/29 00:07:21;;;;;;;;;;;21.90;50.50;;;;;;5013396;28;76075;-70
2021/05/29 00:09:46;;;;;;;;;;;21.90;50.60;;;;;;5015244;28;75024;-71
2021/05/29 00:12:12;;;;;;;;;;;21.90;50.70;;;;;;5013441;28;75407;-71
2021/05/29 00:14:48;;;;;;;;;;;21.90;50.90;;;;;;5013470;28;77437;-71
2021/05/29 00:17:15;;;;;;;;;;;21.80;51.10;;;;;;5015431;28;75287;-72
2021/05/29 00:19:40;;;;;;;;;;;21.80;51.20;;;;;;5015017;28;74510;-72
2021/05/29 00:22:06;;;;;;;;;;;21.70;51.20;;;;;;5014914;28;75404;-72
2021/05/29 00:24:31;;;;;;;;;;;21.70;51.30;;;;;;5014566;28;75575;-71
2021/05/29 00:26:57;;;;;;;;;;;21.70;51.40;;;;;;5014930;28;75362;-71
2021/05/29 00:29:23;;;;;;;;;;;21.70;51.50;;;;;;5014685;28;75126;-72
2021/05/29 00:31:48;;;;;;;;;;;21.60;51.60;;;;;;5014933;28;75123;-72
2021/05/29 00:34:14;;;;;;;;;;;21.60;51.70;;;;;;5013284;28;77950;-71
2021/05/29 00:36:39;;;;;;;;;;;21.60;51.70;;;;;;5013237;28;78175;-72
2021/05/29 00:39:05;;;;;;;;;;;21.60;51.80;;;;;;5014687;28;75255;-71
2021/05/29 00:41:31;;;;;;;;;;;21.60;51.90;;;;;;5014175;28;75090;-71
2021/05/29 00:43:56;;;;;;;;;;;21.60;51.80;;;;;;5013132;28;75639;-72
2021/05/29 00:46:22;;;;;;;;;;;21.60;51.90;;;;;;5014857;28;74635;-71
2021/05/29 00:48:48;;;;;;;;;;;21.60;51.80;;;;;;5013341;28;76216;-71
2021/05/29 00:51:13;;;;;;;;;;;21.50;51.80;;;;;;5014684;28;75081;-72
2021/05/29 00:53:39;;;;;;;;;;;21.50;52.00;;;;;;5014332;28;74520;-72
2021/05/29 00:56:05;;;;;;;;;;;21.40;52.00;;;;;;5014523;28;75220;-72
2021/05/29 00:58:31;;;;;;;;;;;21.50;52.10;;;;;;5014307;28;75133;-71
2021/05/29 01:00:57;;;;;;;;;;;21.50;52.10;;;;;;5014838;28;75548;-71
2021/05/29 01:03:23;;;;;;;;;;;21.40;52.10;;;;;;5012722;28;77187;-71
2021/05/29 01:05:48;;;;;;;;;;;21.40;52.20;;;;;;5012614;28;77039;-72
2021/05/29 01:08:14;;;;;;;;;;;21.40;52.20;;;;;;5012674;28;77049;-72
2021/05/29 01:10:40;;;;;;;;;;;21.40;52.20;;;;;;5014150;28;75430;-72
2021/05/29 01:13:08;;;;;;;;;;;21.40;52.10;;;;;;5012687;28;77380;-72
2021/05/29 01:15:37;;;;;;;;;;;21.40;52.10;;;;;;5014299;28;75208;-72
2021/05/29 01:18:14;;;;;;;;;;;21.40;52.10;;;;;;5013031;28;75464;-72
2021/05/29 01:20:41;;;;;;;;;;;21.40;52.10;;;;;;5012358;28;78151;-72
2021/05/29 01:23:07;;;;;;;;;;;21.40;52.30;;;;;;5012228;28;75786;-72
2021/05/29 01:25:36;;;;;;;;;;;21.40;52.20;;;;;;5012613;28;77055;-72
2021/05/29 01:28:13;;;;;;;;;;;21.30;52.30;;;;;;5011563;28;74529;-71
2021/05/29 01:30:42;;;;;;;;;;;21.30;52.30;;;;;;5012394;28;74622;-72
2021/05/29 01:33:12;;;;;;;;;;;21.30;52.50;;;;;;5013196;28;74772;-72
2021/05/29 01:35:38;;;;;;;;;;;21.20;52.50;;;;;;5013927;28;75481;-71
2021/05/29 01:38:04;;;;;;;;;;;21.20;52.60;;;;;;5011779;28;78513;-71
2021/05/29 01:40:30;;;;;;;;;;;21.20;52.70;;;;;;5013482;28;75164;-71
2021/05/29 01:42:57;;;;;;;;;;;21.10;52.90;;;;;;5013953;28;74709;-72
2021/05/29 01:45:25;;;;;;;;;;;21.00;53.10;;;;;;5014012;28;75208;-71
2021/05/29 01:47:51;;;;;;;;;;;21.00;53.20;;;;;;5012092;28;77436;-72
2021/05/29 01:50:18;;;;;;;;;;;21.00;53.30;;;;;;5013742;28;74465;-72
2021/05/29 01:52:48;;;;;;;;;;;21.00;53.40;;;;;;5013285;28;75172;-72
2021/05/29 01:55:14;;;;;;;;;;;21.00;53.30;;;;;;5011732;28;77565;-72
2021/05/29 01:57:40;;;;;;;;;;;20.90;53.30;;;;;;5013489;28;75378;-71
2021/05/29 02:00:06;;;;;;;;;;;20.90;53.50;;;;;;5011849;28;77418;-72
2021/05/29 02:02:33;;;;;;;;;;;20.80;53.70;;;;;;5013297;28;75032;-72
2021/05/29 02:04:58;;;;;;;;;;;20.80;53.80;;;;;;5011793;28;77216;-72
2021/05/29 02:07:24;;;;;;;;;;;20.80;53.80;;;;;;5013280;28;75179;-72
2021/05/29 02:09:49;;;;;;;;;;;20.70;53.90;;;;;;5011669;28;78009;-71
2021/05/29 02:12:15;;;;;;;;;;;20.70;54.00;;;;;;5013337;28;75022;-71
2021/05/29 02:14:42;;;;;;;;;;;20.60;54.10;;;;;;5013531;28;75250;-71
2021/05/29 02:17:07;;;;;;;;;;;20.60;54.30;;;;;;5011818;28;78128;-72
2021/05/29 02:19:34;;;;;;;;;;;20.60;54.40;;;;;;5013469;28;75009;-71
2021/05/29 02:21:59;;;;;;;;;;;20.60;54.30;;;;;;5011697;28;78282;-71
2021/05/29 02:24:25;;;;;;;;;;;20.60;54.40;;;;;;5011321;28;78328;-72
2021/05/29 02:26:50;;;;;;;;;;;20.60;54.40;;;;;;5013617;28;74334;-70
2021/05/29 02:29:19;;;;;;;;;;;20.60;54.40;;;;;;5011353;28;77243;-70
2021/05/29 02:31:44;;;;;;;;;;;20.50;54.50;;;;;;5011303;28;75557;-70
2021/05/29 02:34:11;;;;;;;;;;;20.60;54.60;;;;;;5013057;28;74527;-70
2021/05/29 02:36:36;;;;;;;;;;;20.50;54.60;;;;;;5011105;28;77162;-69
2021/05/29 02:39:02;;;;;;;;;;;20.50;54.60;;;;;;5011145;28;75441;-70
2021/05/29 02:41:28;;;;;;;;;;;20.50;54.70;;;;;;5010355;28;76826;-71
2021/05/29 02:43:53;;;;;;;;;;;20.50;54.80;;;;;;5013109;28;75105;-71
2021/05/29 02:46:19;;;;;;;;;;;20.40;54.80;;;;;;5012548;28;75076;-70
2021/05/29 02:48:45;;;;;;;;;;;20.40;54.80;;;;;;5012997;28;75211;-70
2021/05/29 02:51:11;;;;;;;;;;;20.40;54.80;;;;;;5013521;28;74391;-71
2021/05/29 02:53:37;;;;;;;;;;;20.30;54.90;;;;;;5012557;28;74999;-70
2021/05/29 02:56:02;;;;;;;;;;;20.30;55.10;;;;;;5012720;28;75232;-70
2021/05/29 02:58:28;;;;;;;;;;;20.20;55.20;;;;;;5012677;28;74912;-70
2021/05/29 03:00:53;;;;;;;;;;;20.10;55.30;;;;;;5012767;28;75121;-70
2021/05/29 03:03:19;;;;;;;;;;;20.10;55.40;;;;;;5012666;28;75387;-70
2021/05/29 03:05:46;;;;;;;;;;;20.00;55.60;;;;;;5012375;28;75109;-72
2021/05/29 03:08:12;;;;;;;;;;;20.00;55.70;;;;;;5010965;28;77769;-70
2021/05/29 03:10:38;;;;;;;;;;;19.90;55.80;;;;;;5010915;28;76318;-70
2021/05/29 03:13:06;;;;;;;;;;;19.90;55.90;;;;;;5013025;28;74450;-70
2021/05/29 03:15:31;;;;;;;;;;;19.80;56.10;;;;;;5011155;28;75316;-69
2021/05/29 03:17:58;;;;;;;;;;;19.80;56.30;;;;;;5010988;28;77618;-69
2021/05/29 03:20:25;;;;;;;;;;;19.80;56.20;;;;;;5012641;28;75053;-71
2021/05/29 03:22:51;;;;;;;;;;;19.80;56.40;;;;;;5010594;28;74629;-71
2021/05/29 03:25:17;;;;;;;;;;;19.80;56.40;;;;;;5012790;28;75202;-71
2021/05/29 03:27:43;;;;;;;;;;;19.70;56.50;;;;;;5010871;28;76427;-70
2021/05/29 03:30:10;;;;;;;;;;;19.60;56.60;;;;;;5010776;28;77525;-71
2021/05/29 03:32:36;;;;;;;;;;;19.60;56.80;;;;;;5010933;28;76322;-72
2021/05/29 03:35:03;;;;;;;;;;;19.60;56.90;;;;;;5010662;28;76468;-72
2021/05/29 03:37:28;;;;;;;;;;;19.70;56.90;;;;;;5010901;28;76207;-71
2021/05/29 03:39:54;;;;;;;;;;;19.60;56.90;;;;;;5011829;28;75114;-71
2021/05/29 03:42:19;;;;;;;;;;;19.70;56.90;;;;;;5012108;28;75637;-69
2021/05/29 03:44:45;;;;;;;;;;;19.60;56.90;;;;;;5012493;28;75445;-70
2021/05/29 03:47:11;;;;;;;;;;;19.50;57.00;;;;;;5012144;28;75195;-72
2021/05/29 03:49:36;;;;;;;;;;;19.50;57.20;;;;;;5010867;28;75429;-72
2021/05/29 03:52:02;;;;;;;;;;;19.50;57.30;;;;;;5014310;28;74551;-73
2021/05/29 03:54:28;;;;;;;;;;;19.50;57.40;;;;;;5015015;28;75659;-72
2021/05/29 03:56:53;;;;;;;;;;;19.50;57.60;;;;;;5015279;28;75392;-72
2021/05/29 03:59:20;;;;;;;;;;;19.40;57.60;;;;;;5013955;28;78100;-73
2021/05/29 04:01:46;;;;;;;;;;;19.40;57.70;;;;;;5013641;28;77245;-71
2021/05/29 04:04:11;;;;;;;;;;;19.40;57.80;;;;;;5013728;28;77535;-71
2021/05/29 04:06:37;;;;;;;;;;;19.40;57.80;;;;;;5015329;28;75198;-72
2021/05/29 04:09:07;;;;;;;;;;;19.40;57.90;;;;;;5014970;28;74439;-72
2021/05/29 04:11:33;;;;;;;;;;;19.40;57.80;;;;;;5014137;28;77146;-72
2021/05/29 04:13:58;;;;;;;;;;;19.40;57.90;;;;;;5014872;28;75550;-72
2021/05/29 04:16:24;;;;;;;;;;;19.40;57.90;;;;;;5015313;28;75164;-72
2021/05/29 04:18:50;;;;;;;;;;;19.30;58.10;;;;;;5014703;28;75722;-72
2021/05/29 04:21:15;;;;;;;;;;;19.20;58.20;;;;;;5015118;28;75677;-71
2021/05/29 04:23:41;;;;;;;;;;;19.20;58.30;;;;;;5015089;28;74503;-71
2021/05/29 04:26:07;;;;;;;;;;;19.20;58.50;;;;;;5014670;28;75114;-71
2021/05/29 04:28:36;;;;;;;;;;;19.10;58.60;;;;;;5013487;28;75340;-72
2021/05/29 04:31:02;;;;;;;;;;;19.10;58.60;;;;;;5014827;28;75054;-72
2021/05/29 04:33:28;;;;;;;;;;;19.00;58.60;;;;;;5014945;28;74414;-71
2021/05/29 04:35:54;;;;;;;;;;;19.00;58.80;;;;;;5013423;28;76985;-71
2021/05/29 04:38:19;;;;;;;;;;;19.00;59.00;;;;;;5014611;28;75704;-72
2021/05/29 04:40:45;;;;;;;;;;;19.00;59.10;;;;;;5015081;28;75575;-71
2021/05/29 04:43:11;;;;;;;;;;;19.00;59.20;;;;;;5012964;28;76347;-71
2021/05/29 04:45:36;;;;;;;;;;;19.00;59.30;;;;;;5013197;28;75572;-72
2021/05/29 04:48:02;;;;;;;;;;;18.90;59.20;;;;;;5012815;28;76995;-71
2021/05/29 04:50:28;;;;;;;;;;;18.90;59.20;;;;;;5014551;28;75392;-72
2021/05/29 04:52:53;;;;;;;;;;;19.00;59.20;;;;;;5012708;28;75333;-71
2021/05/29 04:55:21;;;;;;;;;;;18.90;59.20;;;;;;5014350;28;75311;-70
2021/05/29 04:57:46;;;;;;;;;;;19.00;59.30;;;;;;5014435;28;75307;-72
2021/05/29 05:00:13;;;;;;;;;;;18.90;59.20;;;;;;5014256;28;75379;-72
2021/05/29 05:02:39;;;;;;;;;;;18.90;59.20;;;;;;5012046;28;77297;-72
2021/05/29 05:05:05;;;;;;;;;;;18.90;59.10;;;;;;5014278;28;75251;-72
2021/05/29 05:07:31;;;;;;;;;;;19.00;59.10;;;;;;5012227;28;76465;-71
2021/05/29 05:09:57;;;;;;;;;;;18.90;59.10;;;;;;5014212;28;74975;-72
2021/05/29 05:12:22;;;;;;;;;;;18.90;59.00;;;;;;5014525;28;74417;-71
2021/05/29 05:14:48;;;;;;;;;;;18.90;59.10;;;;;;5012929;28;75721;-72
2021/05/29 05:17:14;;;;;;;;;;;18.80;59.20;;;;;;5012856;28;75425;-72
2021/05/29 05:19:39;;;;;;;;;;;18.90;59.20;;;;;;5014224;28;75242;-72
2021/05/29 05:22:05;;;;;;;;;;;18.80;59.30;;;;;;5012203;28;77954;-72
2021/05/29 05:24:31;;;;;;;;;;;18.80;59.40;;;;;;5012452;28;76309;-71
2021/05/29 05:26:56;;;;;;;;;;;18.80;59.40;;;;;;5012420;28;74544;-71
2021/05/29 05:29:22;;;;;;;;;;;18.80;59.50;;;;;;5013969;28;75494;-72
2021/05/29 05:31:48;;;;;;;;;;;18.80;59.40;;;;;;5013559;28;76720;-71
2021/05/29 05:34:13;;;;;;;;;;;18.70;59.30;;;;;;5014322;28;74610;-72
2021/05/29 05:36:39;;;;;;;;;;;18.80;59.30;;;;;;5014719;28;74434;-72
2021/05/29 05:39:06;;;;;;;;;;;18.70;59.40;;;;;;5013456;28;74920;-71
2021/05/29 05:41:32;;;;;;;;;;;18.80;59.40;;;;;;5013848;28;75095;-72
2021/05/29 05:43:58;;;;;;;;;;;18.80;59.60;;;;;;5013689;28;75082;-72
2021/05/29 05:46:23;;;;;;;;;;;18.80;59.40;;;;;;5013433;28;75545;-71
2021/05/29 05:48:49;;;;;;;;;;;18.90;59.40;;;;;;5012179;28;76429;-71
2021/05/29 05:51:15;;;;;;;;;;;18.90;59.40;;;;;;5012063;28;75195;-71
2021/05/29 05:53:40;;;;;;;;;;;19.00;59.30;;;;;;5012998;28;75151;-72
2021/05/29 05:56:07;;;;;;;;;;;19.00;59.00;;;;;;5012998;28;77468;-72
2021/05/29 05:58:37;;;;;;;;;;;18.90;58.90;;;;;;5011869;28;74704;-72
2021/05/29 06:01:03;;;;;;;;;;;18.90;58.90;;;;;;5011897;28;76525;-73
2021/05/29 06:03:29;;;;;;;;;;;19.00;58.80;;;;;;5013250;28;75073;-72
2021/05/29 06:05:54;;;;;;;;;;;19.00;58.80;;;;;;5012053;28;77247;-72
2021/05/29 06:08:20;;;;;;;;;;;19.00;58.90;;;;;;5013030;28;74640;-72
2021/05/29 06:10:50;;;;;;;;;;;19.10;58.80;;;;;;5011657;28;74620;-64
2021/05/29 06:13:30;;;;;;;;;;;19.10;58.70;;;;;;5013522;28;74421;-65
2021/05/29 06:19:09;;;;;;;;;;;19.30;58.60;;;;;;5014047;28;74433;-66
2021/05/29 06:21:28;;;;;;;;;;;19.30;58.70;;;;;;5012514;28;75308;-67
2021/05/29 06:23:53;;;;;;;;;;;19.40;58.40;;;;;;5013125;28;75082;-65
2021/05/29 06:26:19;;;;;;;;;;;19.50;58.20;;;;;;5013017;28;74484;-67
2021/05/29 06:28:45;;;;;;;;;;;19.60;57.90;;;;;;5011780;28;77269;-67
2021/05/29 06:31:10;;;;;;;;;;;19.70;57.80;;;;;;5011287;28;75310;-66
2021/05/29 06:33:36;;;;;;;;;;;19.70;57.50;;;;;;5011550;28;75384;-66
2021/05/29 06:36:02;;;;;;;;;;;19.80;57.30;;;;;;5013003;28;75080;-64
2021/05/29 06:38:30;;;;;;;;;;;19.90;57.40;;;;;;5012693;28;75060;-65
2021/05/29 06:40:55;;;;;;;;;;;19.90;57.10;;;;;;5011808;28;75550;-65
2021/05/29 06:43:21;;;;;;;;;;;19.90;57.10;;;;;;5013116;28;74447;-67
2021/05/29 06:45:47;;;;;;;;;;;20.00;56.90;;;;;;5013113;28;75607;-66
2021/05/29 06:48:15;;;;;;;;;;;20.00;56.90;;;;;;5012713;28;74961;-67
2021/05/29 06:50:47;;;;;;;;;;;20.10;56.60;;;;;;5012886;28;75285;-67
2021/05/29 06:53:15;;;;;;;;;;;20.20;56.40;;;;;;5012753;28;75500;-66
2021/05/29 07:01:09;;;;;;;;;;;20.40;55.90;;;;;;5012546;28;75277;-64
2021/05/29 07:03:35;;;;;;;;;;;20.40;55.80;;;;;;5011244;28;75915;-65
2021/05/29 07:06:00;;;;;;;;;;;20.40;55.80;;;;;;5010879;28;78249;-65
2021/05/29 07:08:26;;;;;;;;;;;20.40;55.60;;;;;;5010950;28;78581;-65
2021/05/29 07:10:52;;;;;;;;;;;20.50;55.60;;;;;;5011423;28;75394;-64
2021/05/29 07:13:17;;;;;;;;;;;20.50;55.50;;;;;;5011881;28;77174;-65
2021/05/29 07:15:43;;;;;;;;;;;20.60;55.50;;;;;;5010989;28;77451;-66
2021/05/29 07:18:12;;;;;;;;;;;20.60;55.40;;;;;;5010654;28;77286;-65
2021/05/29 07:20:38;;;;;;;;;;;20.70;55.30;;;;;;5012890;28;74465;-65
2021/05/29 07:23:04;;;;;;;;;;;20.80;55.20;;;;;;5012085;28;75288;-65
2021/05/29 07:25:30;;;;;;;;;;;20.80;55.20;;;;;;5013074;28;74422;-66
2021/05/29 07:27:55;;;;;;;;;;;20.80;55.10;;;;;;5015346;28;75394;-66
2021/05/29 07:30:22;;;;;;;;;;;20.90;55.00;;;;;;5015550;28;76983;-67
2021/05/29 07:32:47;;;;;;;;;;;20.90;54.80;;;;;;5014293;28;77826;-66
2021/05/29 07:35:14;;;;;;;;;;;21.00;54.80;;;;;;5015621;28;74433;-66
2021/05/29 07:37:39;;;;;;;;;;;21.00;54.60;;;;;;5015713;28;75668;-65
2021/05/29 07:40:05;;;;;;;;;;;21.00;54.50;;;;;;5015478;28;75282;-66
2021/05/29 07:42:31;;;;;;;;;;;21.10;54.60;;;;;;5015672;28;75113;-66
2021/05/29 07:44:56;;;;;;;;;;;21.20;54.60;;;;;;5015728;28;75309;-66
2021/05/29 07:47:22;;;;;;;;;;;21.20;54.20;;;;;;5015372;28;74400;-67
2021/05/29 07:49:48;;;;;;;;;;;21.40;54.20;;;;;;5015583;28;75505;-65
2021/05/29 07:52:13;;;;;;;;;;;21.40;54.10;;;;;;5015270;28;75078;-66
2021/05/29 07:54:39;;;;;;;;;;;21.50;54.50;;;;;;5014885;28;75109;-67
2021/05/29 07:57:05;;;;;;;;;;;21.50;56.80;;;;;;5014162;28;78045;-65
2021/05/29 07:59:31;;;;;;;;;;;21.50;55.00;;;;;;5013901;28;76325;-66
2021/05/29 08:01:57;;;;;;;;;;;21.60;53.80;;;;;;5013807;28;77505;-65
2021/05/29 08:04:22;;;;;;;;;;;21.70;53.50;;;;;;5013800;28;76417;-66
2021/05/29 08:06:48;;;;;;;;;;;21.90;53.50;;;;;;5015261;28;75009;-68
2021/05/29 08:09:14;;;;;;;;;;;21.90;52.50;;;;;;5013582;28;75824;-67
2021/05/29 08:11:40;;;;;;;;;;;22.00;52.20;;;;;;5015243;28;75147;-65
2021/05/29 08:14:07;;;;;;;;;;;22.10;51.60;;;;;;5015303;28;75153;-66
2021/05/29 08:16:33;;;;;;;;;;;22.20;51.10;;;;;;5013677;28;75328;-66
2021/05/29 08:18:59;;;;;;;;;;;22.30;51.20;;;;;;5013867;28;77924;-66
2021/05/29 08:21:25;;;;;;;;;;;22.30;51.10;;;;;;5014773;28;75659;-66
2021/05/29 08:23:50;;;;;;;;;;;22.40;50.40;;;;;;5014797;28;75319;-66
2021/05/29 08:26:16;;;;;;;;;;;22.50;50.60;;;;;;5015283;28;74549;-66
2021/05/29 08:28:45;;;;;;;;;;;22.60;50.30;;;;;;5015056;28;75240;-66
2021/05/29 08:31:12;;;;;;;;;;;22.60;49.60;;;;;;5015454;28;74389;-67
2021/05/29 08:33:39;;;;;;;;;;;22.60;49.30;;;;;;5013277;28;78582;-66
2021/05/29 08:36:05;;;;;;;;;;;22.70;49.70;;;;;;5014950;28;75454;-66
2021/05/29 08:38:31;;;;;;;;;;;22.80;49.30;;;;;;5013333;28;75263;-66
2021/05/29 08:40:56;;;;;;;;;;;22.90;49.50;;;;;;5014917;28;75173;-66
2021/05/29 08:43:22;;;;;;;;;;;22.90;49.50;;;;;;5013128;28;76528;-66
2021/05/29 08:45:48;;;;;;;;;;;23.00;49.50;;;;;;5014914;28;75318;-66
2021/05/29 08:48:15;;;;;;;;;;;23.20;49.20;;;;;;5015239;28;74544;-65
2021/05/29 08:51:12;;;;;;;;;;;23.30;49.00;;;;;;5012803;28;77209;-66
2021/05/29 08:53:26;;;;;;;;;;;23.40;48.70;;;;;;5013655;28;75303;-64
2021/05/29 08:55:52;;;;;;;;;;;23.40;48.30;;;;;;5014137;28;75221;-64
2021/05/29 08:58:17;;;;;;;;;;;23.50;48.40;;;;;;5013000;28;78012;-65
2021/05/29 09:00:43;;;;;;;;;;;23.60;48.20;;;;;;5014876;28;74597;-65
2021/05/29 09:03:12;;;;;;;;;;;23.70;47.60;;;;;;5013427;28;74983;-66
2021/05/29 09:05:50;;;;;;;;;;;23.70;47.70;;;;;;5014526;28;75205;-66
2021/05/29 09:08:17;;;;;;;;;;;23.80;47.60;;;;;;5012637;28;76492;-65
2021/05/29 09:10:45;;;;;;;;;;;23.90;47.00;;;;;;5014301;28;75185;-65
2021/05/29 09:13:13;;;;;;;;;;;23.90;47.00;;;;;;5014065;28;75567;-65
2021/05/29 09:15:44;;;;;;;;;;;24.00;47.00;;;;;;5014224;28;75102;-65
2021/05/29 09:18:22;;;;;;;;;;;24.00;46.60;;;;;;5014328;28;75754;-65
2021/05/29 09:20:48;;;;;;;;;;;24.10;46.70;;;;;;5012550;28;78252;-66
2021/05/29 09:23:13;;;;;;;;;;;24.10;46.80;;;;;;5014038;28;75642;-65
2021/05/29 09:25:49;;;;;;;;;;;24.20;46.10;;;;;;5013401;28;74886;-65
2021/05/29 09:28:20;;;;;;;;;;;24.40;46.20;;;;;;5012727;28;76904;-65
2021/05/29 09:30:51;;;;;;;;;;;24.40;46.00;;;;;;5012374;28;74683;-66
2021/05/29 09:33:23;;;;;;;;;;;24.50;45.90;;;;;;5012235;28;77196;-65
2021/05/29 09:35:56;;;;;;;;;;;24.50;45.60;;;;;;5013816;28;75217;-65
2021/05/29 09:38:32;;;;;;;;;;;24.60;45.60;;;;;;5012486;28;75548;-65
2021/05/29 09:40:57;;;;;;;;;;;24.70;45.10;;;;;;5011917;28;76966;-65
2021/05/29 09:43:23;;;;;;;;;;;24.80;45.10;;;;;;5012346;28;77448;-65
2021/05/29 09:45:57;;;;;;;;;;;24.90;45.10;;;;;;5014163;28;74420;-66
2021/05/29 09:48:23;;;;;;;;;;;24.90;45.20;;;;;;5013633;28;75304;-66
2021/05/29 09:50:58;;;;;;;;;;;25.10;45.10;;;;;;5011679;28;76248;-66
2021/05/29 09:53:27;;;;;;;;;;;25.20;44.70;;;;;;5013668;28;74507;-65
2021/05/29 09:55:53;;;;;;;;;;;25.30;44.50;;;;;;5011864;28;77226;-66
2021/05/29 09:58:19;;;;;;;;;;;25.40;44.60;;;;;;5013689;28;75343;-67
2021/05/29 10:00:49;;;;;;;;;;;25.50;44.30;;;;;;5013559;28;75096;-66
2021/05/29 10:03:15;;;;;;;;;;;25.60;43.70;;;;;;5011756;28;76985;-66
2021/05/29 10:05:43;;;;;;;;;;;25.70;43.70;;;;;;5011809;28;76208;-67
2021/05/29 10:08:12;;;;;;;;;;;25.80;43.80;;;;;;5013445;28;75823;-65
2021/05/29 10:10:38;;;;;;;;;;;25.90;43.40;;;;;;5011516;28;77086;-65
2021/05/29 10:13:03;;;;;;;;;;;26.00;43.30;;;;;;5013381;28;75725;-65
2021/05/29 10:15:29;;;;;;;;;;;26.10;42.40;;;;;;5013113;28;75046;-65
2021/05/29 10:17:56;;;;;;;;;;;26.10;42.40;;;;;;5011745;28;75397;-64
2021/05/29 10:20:21;;;;;;;;;;;26.20;41.70;;;;;;5013371;28;75230;-64
2021/05/29 10:22:47;;;;;;;;;;;26.30;41.30;;;;;;5012929;28;74430;-64
2021/05/29 10:25:16;;;;;;;;;;;26.40;41.50;;;;;;5013055;28;74481;-65
2021/05/29 10:27:45;;;;;;;;;;;26.50;41.00;;;;;;5011423;28;75584;-64
2021/05/29 10:30:11;;;;;;;;;;;26.60;41.20;;;;;;5013225;28;75246;-65
2021/05/29 10:32:37;;;;;;;;;;;26.90;41.00;;;;;;5011408;28;75759;-64
2021/05/29 10:35:07;;;;;;;;;;;27.10;41.20;;;;;;5011548;28;76337;-66
2021/05/29 10:37:37;;;;;;;;;;;27.40;39.60;;;;;;5011404;28;77354;-66
2021/05/29 10:40:16;;;;;;;;;;;27.50;39.80;;;;;;5012740;28;75013;-66
2021/05/29 10:42:42;;;;;;;;;;;27.70;38.40;;;;;;5011259;28;77493;-65
2021/05/29 10:45:16;;;;;;;;;;;27.90;37.40;;;;;;5011647;28;76173;-66
2021/05/29 10:48:10;;;;;;;;;;;28.20;37.20;;;;;;5011041;28;76659;-66
2021/05/29 10:53:45;;;;;;;;;;;28.50;36.60;;;;;;5009493;28;75029;-66
2021/05/29 10:56:20;;;;;;;;;;;28.90;36.60;;;;;;5010796;28;78107;-65
2021/05/29 10:59:07;;;;;;;;;;;29.20;35.30;;;;;;5011336;28;76540;-65
2021/05/29 11:01:37;;;;;;;;;;;29.40;35.20;;;;;;5013896;28;75257;-66
2021/05/29 11:04:15;;;;;;;;;;;29.70;35.00;;;;;;5014842;28;75485;-64
2021/05/29 11:06:42;;;;;;;;;;;30.00;34.40;;;;;;5016219;28;75205;-64
2021/05/29 11:09:09;;;;;;;;;;;30.40;34.40;;;;;;5014617;28;77684;-65
2021/05/29 11:14:10;;;;;;;;;;;31.20;33.30;;;;;;5014615;28;75004;-66
2021/05/29 11:16:51;;;;;;;;;;;31.60;33.00;;;;;;5015653;28;75148;-66
2021/05/29 11:19:24;;;;;;;;;;;32.10;31.80;;;;;;5014239;28;77594;-66
2021/05/29 11:22:05;;;;;;;;;;;32.60;31.60;;;;;;5014315;28;77004;-66
2021/05/29 11:24:32;;;;;;;;;;;33.20;30.80;;;;;;5015830;28;74513;-66
2021/05/29 11:26:58;;;;;;;;;;;33.70;30.00;;;;;;5015872;28;75182;-66
2021/05/29 11:29:24;;;;;;;;;;;34.40;28.50;;;;;;5016006;28;75375;-66
2021/05/29 11:31:50;;;;;;;;;;;35.10;28.20;;;;;;5015523;28;74474;-65
2021/05/29 11:34:16;;;;;;;;;;;36.00;27.40;;;;;;5015846;28;75089;-66
2021/05/29 11:36:42;;;;;;;;;;;36.90;26.50;;;;;;5014116;28;78705;-66
2021/05/29 11:39:13;;;;;;;;;;;37.90;25.60;;;;;;5015654;28;75220;-65
2021/05/29 11:41:39;;;;;;;;;;;38.90;24.30;;;;;;5015872;28;74386;-65
2021/05/29 11:44:09;;;;;;;;;;;39.90;23.30;;;;;;5014654;28;77147;-65
2021/05/29 11:46:35;;;;;;;;;;;40.80;22.10;;;;;;5015530;28;75462;-66
2021/05/29 11:49:00;;;;;;;;;;;41.50;21.60;;;;;;5013864;28;77317;-66
2021/05/29 11:51:27;;;;;;;;;;;42.50;21.20;;;;;;5015498;28;75636;-67
2021/05/29 11:53:52;;;;;;;;;;;43.50;20.70;;;;;;5014847;28;76532;-66
2021/05/29 11:56:21;;;;;;;;;;;44.40;19.90;;;;;;5015353;28;74643;-65
2021/05/29 11:58:50;;;;;;;;;;;45.10;19.30;;;;;;5013865;28;77447;-65
2021/05/29 12:01:17;;;;;;;;;;;45.90;18.00;;;;;;5014166;28;77138;-65
2021/05/29 12:03:44;;;;;;;;;;;46.00;18.10;;;;;;5013933;28;77742;-65
2021/05/29 12:06:11;;;;;;;;;;;46.30;18.10;;;;;;5015399;28;74760;-65
2021/05/29 12:08:53;;;;;;;;;;;46.90;18.00;;;;;;5013962;28;76092;-65
2021/05/29 12:11:20;;;;;;;;;;;47.30;17.50;;;;;;5015174;28;74605;-65
2021/05/29 12:13:54;;;;;;;;;;;47.90;16.70;;;;;;5015394;28;74408;-65
2021/05/29 12:16:23;;;;;;;;;;;48.00;17.10;;;;;;5015401;28;74530;-66
2021/05/29 12:18:49;;;;;;;;;;;48.50;17.10;;;;;;5013784;28;78333;-65
2021/05/29 12:21:15;;;;;;;;;;;48.90;16.10;;;;;;5013678;28;75398;-65
2021/05/29 12:23:55;;;;;;;;;;;49.10;16.80;;;;;;5015100;28;74579;-66
2021/05/29 12:26:22;;;;;;;;;;;49.50;16.80;;;;;;5015203;28;75235;-66
2021/05/29 12:28:48;;;;;;;;;;;50.20;16.70;;;;;;5014709;28;75018;-67
2021/05/29 12:31:14;;;;;;;;;;;51.00;16.20;;;;;;5013480;28;77349;-67
2021/05/29 12:33:39;;;;;;;;;;;51.00;13.70;;;;;;5013207;28;75739;-66
2021/05/29 12:36:10;;;;;;;;;;;50.40;14.20;;;;;;5015250;28;74457;-66
2021/05/29 12:38:36;;;;;;;;;;;50.00;15.70;;;;;;5013632;28;78660;-67
2021/05/29 12:41:13;;;;;;;;;;;50.40;15.80;;;;;;5014756;28;74561;-67
2021/05/29 12:43:39;;;;;;;;;;;51.40;16.20;;;;;;5014952;28;75060;-67
2021/05/29 12:46:05;;;;;;;;;;;51.80;15.00;;;;;;5014555;28;75233;-66
2021/05/29 12:48:31;;;;;;;;;;;52.30;15.10;;;;;;5013567;28;77268;-67
2021/05/29 12:51:08;;;;;;;;;;;52.70;14.70;;;;;;5012932;28;75632;-67
2021/05/29 12:53:35;;;;;;;;;;;52.60;14.30;;;;;;5014795;28;75204;-66
2021/05/29 12:56:23;;;;;;;;;;;52.90;14.90;;;;;;5014334;28;75084;-66
2021/05/29 12:59:04;;;;;;;;;;;53.50;14.70;;;;;;5013088;28;75936;-65
2021/05/29 13:01:41;;;;;;;;;;;54.30;14.60;;;;;;5013113;28;75226;-66
2021/05/29 13:09:45;;;;;;;;;;;54.90;14.00;;;;;;5014434;28;74501;-67
2021/05/29 13:12:15;;;;;;;;;;;55.00;14.10;;;;;;5013029;28;76167;-65
2021/05/29 13:14:42;;;;;;;;;;;55.60;14.40;;;;;;5014061;28;75799;-66
2021/05/29 13:17:09;;;;;;;;;;;56.20;13.90;;;;;;5014299;28;75383;-66
2021/05/29 13:19:50;;;;;;;;;;;56.60;13.70;;;;;;5014097;28;75151;-66
2021/05/29 13:22:16;;;;;;;;;;;56.60;12.40;;;;;;5012431;28;76169;-65
2021/05/29 13:24:47;;;;;;;;;;;55.70;12.60;;;;;;5011635;28;74477;-65
2021/05/29 13:27:15;;;;;;;;;;;55.40;13.60;;;;;;5013956;28;75307;-66
2021/05/29 13:29:40;;;;;;;;;;;55.70;13.80;;;;;;5012550;28;77214;-66
2021/05/29 13:32:07;;;;;;;;;;;56.50;13.10;;;;;;5011821;28;77398;-66
2021/05/29 13:34:33;;;;;;;;;;;56.80;13.60;;;;;;5012245;28;75667;-66
2021/05/29 13:36:58;;;;;;;;;;;57.30;12.70;;;;;;5013908;28;74948;-65
2021/05/29 13:39:24;;;;;;;;;;;57.70;12.90;;;;;;5012134;28;77204;-66
2021/05/29 13:41:50;;;;;;;;;;;57.50;13.50;;;;;;5012133;28;76155;-65
2021/05/29 13:44:15;;;;;;;;;;;57.60;13.10;;;;;;5013556;28;75468;-67
2021/05/29 13:46:41;;;;;;;;;;;58.00;12.80;;;;;;5012315;28;78131;-66
2021/05/29 13:49:07;;;;;;;;;;;58.20;11.40;;;;;;5014312;28;74562;-67
2021/05/29 13:51:33;;;;;;;;;;;58.00;12.80;;;;;;5013418;28;75124;-65
2021/05/29 13:53:59;;;;;;;;;;;57.90;13.10;;;;;;5011575;28;77389;-68
2021/05/29 13:56:26;;;;;;;;;;;58.10;13.00;;;;;;5013531;28;75865;-65
2021/05/29 13:58:51;;;;;;;;;;;58.50;13.20;;;;;;5011943;28;78038;-66
2021/05/29 14:01:17;;;;;;;;;;;58.70;12.60;;;;;;5011660;28;77210;-65
2021/05/29 14:03:43;;;;;;;;;;;58.50;12.50;;;;;;5013771;28;74560;-64
2021/05/29 14:06:08;;;;;;;;;;;58.40;12.60;;;;;;5013275;28;75069;-66
2021/05/29 14:08:34;;;;;;;;;;;58.00;12.10;;;;;;5013515;28;74521;-67
2021/05/29 14:11:00;;;;;;;;;;;57.70;13.30;;;;;;5011136;28;77088;-67
2021/05/29 14:13:26;;;;;;;;;;;57.90;13.10;;;;;;5013232;28;75542;-66
2021/05/29 14:15:52;;;;;;;;;;;58.20;12.40;;;;;;5013287;28;74949;-65
2021/05/29 14:18:18;;;;;;;;;;;58.40;12.60;;;;;;5011395;28;75484;-65
2021/05/29 14:20:43;;;;;;;;;;;58.50;11.00;;;;;;5011606;28;74790;-66
2021/05/29 14:23:09;;;;;;;;;;;57.90;12.80;;;;;;5011165;28;77659;-65
2021/05/29 14:25:35;;;;;;;;;;;57.70;13.20;;;;;;5012959;28;74472;-66
2021/05/29 14:28:00;;;;;;;;;;;57.90;12.90;;;;;;5012958;28;75229;-66
2021/05/29 14:30:26;;;;;;;;;;;58.20;12.50;;;;;;5013219;28;75091;-66
2021/05/29 14:32:52;;;;;;;;;;;58.40;12.80;;;;;;5012626;28;74675;-65
2021/05/29 14:35:19;;;;;;;;;;;58.60;12.60;;;;;;5012608;28;76797;-66